Terminal Aerodrome Forecast
Issued by NWS

Home | Current Version | Previous Version | Text Only | Print | Product List | Glossary On
Versions: 1 2 3 4 5 6 7 8 9 10 11 12 13 14 15 16 17
000
FTUS45 KRIW 022300
TAFCPR
TAF
KCPR 022335Z 0300/0324 VRB05KT 1/2SM SN VV008
     FM030030 03007KT 1SM -SN SCT008 OVC015
     FM030300 02014G20KT 1/2SM SN BLSN OVC008
     FM031500 03012KT 2SM -SN OVC012
     FM031800 03007KT 4SM -SN OVC025=

USA.gov is the U.S. government's official web portal to all federal, state and local government web resources and services.